createdAt,value
2022-12-27T00:01:46.211Z,1.50
2022-12-27T00:04:18.980Z,1.20
2022-12-27T00:06:51.676Z,1.20
2022-12-27T00:09:24.639Z,1.00
2022-12-27T00:11:59.952Z,1.50
2022-12-27T00:14:33.037Z,1.30
2022-12-27T00:17:06.032Z,1.20
2022-12-27T00:19:38.994Z,1.40
2022-12-27T00:22:12.933Z,1.90
2022-12-27T00:24:45.796Z,1.90
2022-12-27T00:27:18.477Z,1.60
2022-12-27T00:29:52.330Z,1.40
2022-12-27T00:32:27.387Z,1.60
2022-12-27T00:35:00.353Z,1.50
2022-12-27T00:37:33.066Z,1.90
2022-12-27T00:40:12.376Z,1.80
2022-12-27T00:42:45.191Z,2.00
2022-12-27T00:45:20.343Z,2.20
2022-12-27T00:47:56.096Z,1.70
2022-12-27T00:50:29.261Z,1.60
2022-12-27T00:53:04.641Z,1.90
2022-12-27T00:55:37.748Z,1.80
2022-12-27T00:58:11.490Z,1.70
2022-12-27T01:00:44.558Z,1.70
2022-12-27T01:03:18.013Z,1.70
2022-12-27T01:05:51.590Z,1.80
2022-12-27T01:08:24.586Z,2.20
2022-12-27T01:10:57.449Z,1.60
2022-12-27T01:13:30.857Z,2.10
2022-12-27T01:16:12.755Z,1.80
2022-12-27T01:18:45.616Z,2.20
2022-12-27T01:21:20.713Z,2.00
2022-12-27T01:23:53.752Z,1.80
2022-12-27T01:26:26.874Z,1.70
2022-12-27T01:28:59.560Z,2.00
2022-12-27T01:31:32.485Z,1.90
2022-12-27T01:34:05.259Z,2.40
2022-12-27T01:36:37.935Z,1.80
2022-12-27T01:39:13.965Z,2.10
2022-12-27T01:42:05.441Z,1.70
2022-12-27T01:44:57.047Z,1.80
2022-12-27T01:47:45.604Z,1.90
2022-12-27T01:50:24.884Z,1.90
2022-12-27T01:53:03.560Z,1.80
2022-12-27T01:55:41.148Z,1.70
2022-12-27T01:58:19.133Z,2.00
2022-12-27T02:00:54.989Z,1.90
2022-12-27T02:03:31.535Z,2.20
2022-12-27T02:06:07.169Z,2.10
2022-12-27T02:08:50.293Z,2.30
2022-12-27T02:11:41.692Z,2.50
2022-12-27T02:14:16.781Z,2.60
2022-12-27T02:16:49.454Z,2.00
2022-12-27T02:19:33.079Z,2.10
2022-12-27T02:26:39.325Z,2.10
2022-12-27T02:29:31.540Z,2.10
2022-12-27T02:32:08.761Z,2.00
2022-12-27T02:34:57.311Z,2.20
2022-12-27T02:37:33.197Z,1.90
2022-12-27T02:40:28.504Z,1.90
2022-12-27T02:43:23.042Z,2.10
2022-12-27T02:46:28.213Z,2.10
2022-12-27T02:49:22.985Z,1.80
2022-12-27T02:52:29.191Z,2.10
2022-12-27T02:55:17.066Z,2.20
2022-12-27T02:58:15.407Z,2.00
2022-12-27T03:01:14.101Z,2.10
2022-12-27T03:04:05.026Z,2.10
2022-12-27T03:06:59.731Z,2.30
2022-12-27T03:10:21.485Z,2.10
2022-12-27T03:13:21.953Z,2.60
2022-12-27T03:16:09.083Z,2.00
2022-12-27T03:18:54.754Z,2.20
2022-12-27T03:22:00.725Z,2.10
2022-12-27T03:25:06.070Z,2.20
2022-12-27T03:27:44.467Z,2.40
2022-12-27T03:30:34.826Z,2.70
2022-12-27T03:33:14.663Z,2.10
2022-12-27T03:54:40.301Z,1.70
2022-12-27T03:57:14.609Z,2.10
2022-12-27T03:59:44.146Z,2.30
2022-12-27T04:02:14.304Z,2.10
2022-12-27T04:04:44.010Z,2.20
2022-12-27T04:10:20.439Z,2.60
2022-12-27T04:13:08.055Z,2.50
2022-12-27T04:15:55.570Z,2.40
2022-12-27T04:18:42.838Z,2.90
2022-12-27T04:21:30.155Z,2.60
2022-12-27T04:24:19.792Z,2.20
2022-12-27T04:27:07.356Z,2.50
2022-12-27T04:29:57.816Z,2.40
2022-12-27T04:32:45.662Z,2.50
2022-12-27T04:35:15.011Z,2.40
2022-12-27T04:37:44.407Z,2.80
2022-12-27T04:40:31.877Z,2.90
2022-12-27T04:43:19.368Z,2.50
2022-12-27T04:46:06.701Z,2.70
2022-12-27T04:49:08.680Z,3.20
2022-12-27T04:51:56.215Z,2.90
2022-12-27T04:54:44.331Z,2.60
2022-12-27T04:57:13.668Z,2.70
2022-12-27T05:00:01.088Z,2.50
2022-12-27T05:02:30.766Z,2.90
2022-12-27T05:05:00.768Z,2.20
2022-12-27T05:07:48.683Z,3.00
2022-12-27T05:10:36.639Z,2.60
2022-12-27T05:13:24.231Z,3.00
2022-12-27T05:15:53.569Z,2.90
2022-12-27T05:18:26.688Z,2.60
2022-12-27T05:21:03.518Z,2.60
2022-12-27T05:23:52.910Z,2.50
2022-12-27T05:26:24.339Z,3.40
2022-12-27T05:28:55.016Z,3.10
2022-12-27T05:31:26.487Z,3.30
2022-12-27T05:33:57.160Z,3.00
2022-12-27T05:36:27.076Z,2.70
2022-12-27T05:38:57.569Z,2.80
2022-12-27T05:41:31.292Z,3.10
2022-12-27T05:44:07.179Z,3.20
2022-12-27T05:46:37.135Z,3.10
2022-12-27T05:49:06.737Z,3.00
2022-12-27T05:51:35.950Z,2.70
2022-12-27T05:54:05.682Z,2.80
2022-12-27T05:56:36.710Z,2.60
2022-12-27T05:59:07.371Z,3.20
2022-12-27T06:01:39.027Z,2.40
2022-12-27T06:04:10.198Z,2.60
2022-12-27T06:06:41.723Z,2.50
2022-12-27T06:09:11.058Z,2.70
2022-12-27T06:15:33.799Z,2.60
2022-12-27T06:18:27.152Z,2.60
2022-12-27T06:21:02.771Z,2.80
2022-12-27T06:23:32.721Z,3.60
2022-12-27T06:26:06.741Z,3.00
2022-12-27T06:28:36.344Z,3.00
2022-12-27T06:31:06.689Z,2.50
2022-12-27T06:33:36.001Z,3.20
2022-12-27T06:36:49.174Z,2.10
2022-12-27T06:39:19.442Z,2.40
2022-12-27T06:41:53.405Z,2.70
2022-12-27T06:44:22.772Z,2.90
2022-12-27T06:46:52.139Z,2.30
2022-12-27T06:49:22.827Z,2.80
2022-12-27T06:51:59.059Z,3.80
2022-12-27T06:54:33.847Z,3.80
2022-12-27T06:57:03.395Z,5.10
2022-12-27T06:59:32.676Z,4.20
2022-12-27T07:02:02.143Z,11.30
2022-12-27T07:04:34.923Z,5.00
2022-12-27T07:07:04.767Z,7.50
2022-12-27T07:09:34.013Z,6.00
2022-12-27T07:12:17.077Z,5.40
2022-12-27T07:15:00.710Z,4.20
2022-12-27T07:17:30.133Z,3.10
2022-12-27T07:19:59.435Z,3.50
2022-12-27T07:22:28.962Z,3.30
2022-12-27T07:24:58.210Z,4.20
2022-12-27T07:27:27.481Z,4.50
2022-12-27T07:29:56.909Z,3.40
2022-12-27T07:32:26.158Z,3.00
2022-12-27T07:34:55.628Z,3.20
2022-12-27T07:37:24.904Z,3.30
2022-12-27T07:39:54.171Z,4.70
2022-12-27T07:42:23.636Z,4.10
2022-12-27T07:44:53.047Z,5.00
2022-12-27T07:47:22.277Z,4.20
2022-12-27T07:49:51.741Z,4.90
2022-12-27T07:52:21.070Z,8.60
2022-12-27T07:54:50.352Z,21.90
2022-12-27T07:57:19.737Z,16.50
2022-12-27T07:59:49.202Z,13.80
2022-12-27T08:02:18.574Z,5.20
2022-12-27T08:04:48.487Z,3.90
2022-12-27T08:08:23.587Z,16.70
2022-12-27T08:10:53.102Z,6.00
2022-12-27T08:13:22.662Z,4.10
2022-12-27T08:16:00.664Z,3.90
2022-12-27T08:18:30.080Z,3.40
2022-12-27T08:20:59.381Z,3.70
2022-12-27T08:23:28.620Z,2.90
2022-12-27T08:25:57.941Z,3.20
2022-12-27T08:28:31.040Z,6.20
2022-12-27T08:31:00.919Z,5.00
2022-12-27T08:33:30.254Z,4.30
2022-12-27T08:36:15.723Z,3.90
2022-12-27T08:38:55.911Z,4.10
2022-12-27T08:41:25.453Z,4.10
2022-12-27T08:43:54.749Z,4.30
2022-12-27T08:46:28.589Z,3.50
2022-12-27T08:49:00.915Z,3.90
2022-12-27T08:52:00.414Z,4.30
2022-12-27T08:54:44.349Z,4.00
2022-12-27T08:57:13.627Z,3.80
2022-12-27T08:59:42.931Z,3.60
2022-12-27T09:02:13.930Z,3.50
2022-12-27T09:04:44.462Z,3.60
2022-12-27T09:07:13.939Z,3.50
2022-12-27T09:09:44.396Z,4.30
2022-12-27T09:12:13.682Z,3.60
2022-12-27T09:14:42.921Z,3.30
2022-12-27T09:17:13.347Z,3.10
2022-12-27T09:19:42.648Z,3.00
2022-12-27T09:22:12.065Z,3.50
2022-12-27T09:24:41.391Z,2.90
2022-12-27T09:27:10.693Z,3.00
2022-12-27T09:29:43.166Z,3.80
2022-12-27T09:32:17.435Z,3.30
2022-12-27T09:34:49.050Z,3.60
2022-12-27T09:37:18.317Z,3.60
2022-12-27T09:39:47.791Z,2.90
2022-12-27T09:42:50.137Z,2.80
2022-12-27T09:45:28.402Z,2.60
2022-12-27T09:48:02.178Z,2.60
2022-12-27T09:50:35.916Z,2.70
2022-12-27T09:53:16.781Z,2.70
2022-12-27T09:55:50.192Z,3.40
2022-12-27T09:58:34.179Z,3.50
2022-12-27T10:01:14.923Z,3.40
2022-12-27T10:03:44.839Z,4.60
2022-12-27T10:06:26.906Z,3.20
2022-12-27T10:09:02.637Z,4.00
2022-12-27T10:11:41.166Z,3.80
2022-12-27T10:14:25.756Z,4.30
2022-12-27T10:17:02.239Z,4.20
2022-12-27T10:19:42.104Z,4.00
2022-12-27T10:22:26.646Z,5.80
2022-12-27T10:25:03.948Z,5.10
2022-12-27T10:27:33.323Z,4.10
2022-12-27T10:30:13.819Z,3.60
2022-12-27T10:32:43.312Z,4.30
2022-12-27T10:35:18.950Z,3.80
2022-12-27T10:37:49.649Z,3.60
2022-12-27T10:40:25.541Z,3.60
2022-12-27T10:43:04.811Z,4.50
2022-12-27T10:45:38.531Z,4.70
2022-12-27T10:48:22.996Z,4.60
2022-12-27T10:50:56.631Z,4.40
2022-12-27T10:53:36.536Z,3.40
2022-12-27T10:56:13.161Z,3.20
2022-12-27T10:58:45.642Z,3.10
2022-12-27T11:01:22.745Z,3.70
2022-12-27T11:04:11.900Z,3.20
2022-12-27T11:06:47.414Z,4.10
2022-12-27T11:09:26.759Z,5.00
2022-12-27T11:12:13.122Z,4.40
2022-12-27T11:14:55.544Z,4.60
2022-12-27T11:17:37.185Z,6.70
2022-12-27T11:20:26.483Z,8.60
2022-12-27T11:22:59.259Z,7.20
2022-12-27T11:25:31.716Z,8.20
2022-12-27T11:28:04.461Z,6.20
2022-12-27T11:30:37.644Z,6.30
2022-12-27T11:33:24.406Z,6.30
2022-12-27T11:35:57.008Z,8.40
2022-12-27T11:38:29.329Z,7.80
2022-12-27T11:41:05.510Z,7.00
2022-12-27T11:44:11.745Z,4.60
2022-12-27T11:46:47.266Z,6.20
2022-12-27T11:49:22.602Z,13.20
2022-12-27T11:52:18.835Z,14.10
2022-12-27T11:55:23.909Z,10.60
2022-12-27T11:58:33.939Z,9.20
2022-12-27T12:01:24.986Z,11.20
2022-12-27T12:04:06.780Z,10.30
2022-12-27T12:06:47.161Z,10.60
2022-12-27T12:09:50.043Z,10.00
2022-12-27T12:12:51.686Z,6.50
2022-12-27T12:15:41.560Z,5.40
2022-12-27T12:18:33.780Z,5.20
2022-12-27T12:21:26.427Z,5.40
2022-12-27T12:24:37.902Z,6.50
2022-12-27T12:27:27.558Z,7.80
2022-12-27T12:30:27.742Z,4.90
2022-12-27T12:33:13.080Z,4.40
2022-12-27T12:36:22.621Z,4.50
2022-12-27T12:38:58.530Z,19.00
2022-12-27T12:41:47.735Z,4.90
2022-12-27T12:44:45.939Z,8.60
2022-12-27T12:47:33.636Z,5.70
2022-12-27T12:50:35.945Z,4.80
2022-12-27T12:53:32.803Z,6.60
2022-12-27T12:56:22.148Z,6.60
2022-12-27T12:58:59.829Z,6.50
2022-12-27T13:01:50.926Z,4.90
2022-12-27T13:04:58.074Z,4.90
2022-12-27T13:07:46.392Z,6.60
2022-12-27T13:10:42.777Z,3.60
2022-12-27T13:13:25.309Z,3.90
2022-12-27T13:16:05.817Z,4.90
2022-12-27T13:18:46.906Z,7.60
2022-12-27T13:21:29.119Z,7.00
2022-12-27T13:24:10.624Z,4.20
2022-12-27T13:26:47.938Z,5.70
2022-12-27T13:29:38.656Z,4.30
2022-12-27T13:32:19.360Z,3.90
2022-12-27T13:35:24.636Z,3.60
2022-12-27T13:38:07.016Z,3.00
2022-12-27T13:40:55.621Z,5.10
2022-12-27T13:43:52.565Z,5.70
2022-12-27T13:46:43.127Z,5.30
2022-12-27T13:49:43.799Z,6.70
2022-12-27T13:52:25.689Z,7.60
2022-12-27T13:55:21.553Z,4.90
2022-12-27T13:58:21.643Z,7.80
2022-12-27T14:01:01.383Z,6.60
2022-12-27T14:04:04.273Z,7.90
2022-12-27T14:06:58.429Z,5.60
2022-12-27T14:09:56.494Z,4.70
2022-12-27T14:12:52.793Z,4.50
2022-12-27T14:15:51.009Z,5.40
2022-12-27T14:18:44.357Z,4.00
2022-12-27T14:21:37.067Z,4.10
2022-12-27T14:24:55.301Z,3.90
2022-12-27T14:28:04.664Z,4.50
2022-12-27T14:31:14.240Z,4.30
2022-12-27T14:34:27.594Z,4.00
2022-12-27T14:37:16.695Z,4.70
2022-12-27T14:40:16.931Z,3.20
2022-12-27T14:43:34.804Z,3.80
2022-12-27T14:46:44.978Z,3.80
2022-12-27T14:53:31.125Z,5.50
2022-12-27T14:56:12.185Z,6.50
2022-12-27T14:59:16.994Z,6.20
2022-12-27T15:01:59.040Z,5.50
2022-12-27T15:04:54.924Z,4.20
2022-12-27T15:07:56.831Z,7.80
2022-12-27T15:10:49.172Z,8.60
2022-12-27T15:13:31.318Z,22.90
2022-12-27T15:16:13.362Z,9.40
2022-12-27T15:18:57.591Z,9.20
2022-12-27T15:22:19.471Z,15.90
2022-12-27T15:24:58.316Z,6.50
2022-12-27T15:27:45.934Z,6.80
2022-12-27T15:30:45.527Z,6.40
2022-12-27T15:34:20.407Z,6.50
2022-12-27T15:36:52.305Z,9.80
2022-12-27T15:39:47.285Z,4.90
2022-12-27T15:42:55.166Z,7.60
2022-12-27T15:45:57.532Z,5.70
2022-12-27T15:48:58.338Z,5.50
2022-12-27T15:51:44.025Z,5.60
2022-12-27T15:54:41.202Z,7.10
2022-12-27T15:57:57.979Z,6.20
2022-12-27T16:01:26.386Z,5.60
2022-12-27T16:04:01.427Z,5.70
2022-12-27T16:07:24.984Z,8.10
2022-12-27T16:09:55.505Z,10.40
2022-12-27T16:12:41.475Z,5.60
2022-12-27T16:15:52.819Z,10.40
2022-12-27T16:19:04.539Z,5.00
2022-12-27T16:22:11.567Z,8.00
2022-12-27T16:24:46.244Z,4.00
2022-12-27T16:27:31.657Z,4.40
2022-12-27T16:30:01.189Z,4.00
2022-12-27T16:32:45.302Z,3.70
2022-12-27T16:35:16.430Z,3.50
2022-12-27T16:37:53.586Z,4.40
2022-12-27T16:40:51.930Z,3.70
2022-12-27T16:44:14.245Z,4.20
2022-12-27T16:47:13.300Z,4.00
2022-12-27T16:50:34.727Z,5.60
2022-12-27T16:53:35.635Z,5.60
2022-12-27T17:00:41.593Z,6.50
2022-12-27T17:03:47.754Z,8.20
2022-12-27T17:06:57.843Z,5.50
2022-12-27T17:09:51.840Z,5.60
2022-12-27T17:12:29.299Z,12.20
2022-12-27T17:15:07.628Z,9.90
2022-12-27T17:17:40.416Z,5.30
2022-12-27T17:20:19.499Z,5.50
2022-12-27T17:22:58.218Z,7.50
2022-12-27T17:25:44.527Z,6.70
2022-12-27T17:28:24.146Z,11.10
2022-12-27T17:31:12.970Z,5.80
2022-12-27T17:34:02.592Z,6.80
2022-12-27T17:36:49.211Z,5.70
2022-12-27T17:39:58.800Z,7.00
2022-12-27T17:42:54.404Z,5.60
2022-12-27T17:45:49.617Z,8.20
2022-12-27T17:48:29.325Z,8.10
2022-12-27T17:51:07.186Z,6.30
2022-12-27T17:54:18.288Z,5.40
2022-12-27T17:57:43.978Z,5.70
2022-12-27T18:00:45.273Z,5.80
2022-12-27T18:03:27.994Z,5.50
2022-12-27T18:06:03.341Z,5.90
2022-12-27T18:09:04.963Z,5.30
2022-12-27T18:11:37.798Z,5.70
2022-12-27T18:14:17.027Z,5.70
2022-12-27T18:16:50.490Z,5.60
2022-12-27T18:19:23.604Z,5.30
2022-12-27T18:22:39.389Z,6.00
2022-12-27T18:25:51.054Z,5.60
2022-12-27T18:28:59.871Z,5.40
2022-12-27T18:31:45.385Z,6.60
2022-12-27T18:34:34.645Z,5.90
2022-12-27T18:37:10.071Z,5.80
2022-12-27T18:39:48.730Z,5.70
2022-12-27T18:45:47.127Z,5.70
2022-12-27T18:48:40.625Z,5.60
2022-12-27T18:51:17.782Z,5.60
2022-12-27T18:53:59.278Z,5.30
2022-12-27T18:56:55.599Z,5.50
2022-12-27T19:03:36.552Z,7.20
2022-12-27T19:07:10.607Z,5.90
2022-12-27T19:10:04.294Z,5.60
2022-12-27T19:13:04.429Z,5.60
2022-12-27T19:15:43.916Z,5.40
2022-12-27T19:23:33.031Z,5.20
2022-12-27T19:27:01.989Z,4.60
2022-12-27T19:29:42.638Z,5.10
2022-12-27T19:32:36.838Z,4.70
2022-12-27T19:35:16.741Z,4.90
2022-12-27T19:42:52.168Z,5.40
2022-12-27T19:57:30.557Z,4.40
2022-12-27T20:11:07.624Z,3.70
2022-12-27T20:13:37.531Z,4.50
2022-12-27T20:16:12.408Z,4.30
2022-12-27T20:18:42.937Z,4.40
2022-12-27T20:21:14.770Z,4.50
2022-12-27T20:23:44.620Z,3.70
2022-12-27T20:26:19.721Z,3.90
2022-12-27T20:28:52.888Z,4.10
2022-12-27T20:31:51.585Z,3.70
2022-12-27T20:34:21.175Z,3.90
2022-12-27T20:37:11.783Z,3.60
2022-12-27T20:39:41.245Z,4.20
2022-12-27T20:42:10.656Z,4.20
2022-12-27T20:44:40.204Z,3.70
2022-12-27T20:47:09.811Z,4.10
2022-12-27T20:49:39.476Z,4.10
2022-12-27T20:52:08.795Z,3.70
2022-12-27T20:54:44.168Z,3.80
2022-12-27T20:57:13.570Z,3.40
2022-12-27T20:59:49.373Z,3.60
2022-12-27T21:02:21.675Z,3.40
2022-12-27T21:04:51.335Z,3.90
2022-12-27T21:07:20.905Z,3.70
2022-12-27T21:09:50.502Z,4.20
2022-12-27T21:12:20.068Z,3.70
2022-12-27T21:15:31.336Z,3.70
2022-12-27T21:18:01.079Z,4.70
2022-12-27T21:20:39.100Z,4.20
2022-12-27T21:23:09.116Z,4.40
2022-12-27T21:25:40.535Z,3.70
2022-12-27T21:28:10.078Z,5.10
2022-12-27T21:31:15.425Z,4.20
2022-12-27T21:37:27.524Z,3.90
2022-12-27T21:39:58.141Z,5.30
2022-12-27T21:42:36.151Z,4.40
2022-12-27T21:45:07.715Z,4.40
2022-12-27T21:47:37.016Z,3.90
2022-12-27T21:50:07.718Z,3.60
2022-12-27T21:52:37.118Z,4.20
2022-12-27T21:55:07.350Z,3.90
2022-12-27T21:57:36.615Z,4.20
2022-12-27T22:00:18.700Z,4.20
2022-12-27T22:02:49.410Z,5.30
2022-12-27T22:05:19.047Z,4.00
2022-12-27T22:07:49.291Z,4.60
2022-12-27T22:10:35.203Z,4.50
2022-12-27T22:13:04.652Z,4.60
2022-12-27T22:15:33.901Z,4.00
2022-12-27T22:18:04.579Z,4.50
2022-12-27T22:20:33.899Z,4.60
2022-12-27T22:23:15.775Z,4.20
2022-12-27T22:25:47.163Z,4.30
2022-12-27T22:28:16.657Z,5.20
2022-12-27T22:30:48.505Z,5.10
2022-12-27T22:33:18.451Z,5.30
2022-12-27T22:35:47.834Z,5.90
2022-12-27T22:38:19.190Z,5.90
2022-12-27T22:40:51.035Z,6.30
2022-12-27T22:43:20.691Z,6.00
2022-12-27T22:45:53.728Z,6.00
2022-12-27T22:48:23.452Z,6.10
2022-12-27T22:50:52.721Z,5.70
2022-12-27T22:53:22.000Z,5.60
2022-12-27T22:55:51.272Z,6.10
2022-12-27T22:58:20.803Z,5.60
2022-12-27T23:00:50.147Z,6.10
2022-12-27T23:03:19.491Z,5.90
2022-12-27T23:06:02.792Z,5.80
2022-12-27T23:08:32.085Z,5.70
2022-12-27T23:11:10.382Z,5.80
2022-12-27T23:13:40.053Z,6.00
2022-12-27T23:16:12.292Z,6.40
2022-12-27T23:18:44.095Z,5.80
2022-12-27T23:21:22.981Z,5.90
2022-12-27T23:24:02.708Z,5.50
2022-12-27T23:26:32.035Z,6.10
2022-12-27T23:29:01.637Z,5.60
2022-12-27T23:31:31.615Z,6.20
2022-12-27T23:34:00.997Z,6.00
2022-12-27T23:36:32.125Z,6.40
2022-12-27T23:39:04.622Z,6.40
2022-12-27T23:41:36.445Z,6.10
2022-12-27T23:44:09.175Z,6.90
2022-12-27T23:46:38.480Z,6.60
2022-12-27T23:49:08.138Z,6.40
2022-12-27T23:51:37.435Z,6.40
2022-12-27T23:54:06.776Z,6.50
2022-12-27T23:56:36.303Z,6.60
2022-12-27T23:59:16.146Z,6.70
